Terminal Aerodrome Forecast
Issued by NWS Dodge City, KS

Home | Current Version | Previous Version | Graphics & Text | Print | Product List | Glossary Off
Versions: 1 2 3 4 5 6 7 8 9 10 11 12 13 14 15 16

000
FTUS43 KDDC 230845 AAA
TAFDDC
TAF AMD
KDDC 230845Z 2309/2406 VRB06KT 4SM BR BKN020
     FM231100 VRB05KT 1SM BR OVC006
      TEMPO 2312/2315 1/2SM FG
     FM231800 16007KT P6SM SCT035=

USA.gov is the U.S. government's official web portal to all federal, state and local government web resources and services.